Tiempo atmosférico en la estación meteorológica de Calamocha, Teruel (890 m.)

Fecha
DESCASC
Temp. máxima en grados centígrados (hora)
DESCASC
Temp. mínima en grados centígrados (hora)
DESCASC
Temp. media en grados centígrados
DESCASC
Racha de viento máxima en m/sg (hora)
DESCASC
Velocidad máxima media en intervalos de 10 minutos(hora)
DESCASC
Precipitaciones diarias en mm
DESCASC
Precipitaciones de 00:00 a 06:00 en mm
DESCASC
Precipitaciones de 06:00 a 12:00 en mm
DESCASC
Precipitaciones de 12:00 a 18:00 en mm
DESCASC
Precipitaciones de 18:00 a 24:00 en mm
DESCASC
17-09-2017 23 (16:40) 2.5 (05:00) 12.8 7.78 (15:00) 3.89 (14:10) 0 0 0 0 0
16-09-2017 19.7 (17:40) 0.8 (08:00) 10.3 8.61 (17:30) 4.17 (19:50) 0 0 0 0 0
15-09-2017 13.6 (17:20) 7.8 (23:59) 10.7 8.89 (07:00) 5 (05:30) 0 0 0 0 0
14-09-2017 23.8 (13:10) 10.6 (00:00) 17.2 11.67 (19:30) 5.56 (20:00) 0 0 0 0 0
13-09-2017 31.7 (18:10) 7.9 (00:00) 19.8 6.39 (18:30) 3.06 (09:00) 0 0 0 0 0
12-09-2017 24 (17:20) 10.4 (00:00) 17.2 7.22 (17:20) 3.06 (17:20) 0 0 0 0 0
11-09-2017 27.5 (15:50) 9.5 (00:00) 18.5 11.11 (14:00) 4.72 (13:30) 0 0 0 0 0
10-09-2017 20.9 (17:50) 8.7 (00:00) 14.8 11.39 (10:50) 3.89 (12:30) 0 0 0 0 0
09-09-2017 17.1 (16:10) 9.7 (00:00) 13.4 9.72 (17:10) 5.28 (17:10) 0.4 0 0 0 0.4
08-09-2017 29.9 (16:40) 6 (00:00) 17.9 7.5 (17:50) 3.61 (15:20) 0 0 0 0 0
07-09-2017 26.8 (16:30) 8.9 (00:00) 17.8 7.78 (20:10) 4.44 (20:10) 0 0 0 0 0
06-09-2017 26.6 (16:20) 14.1 (00:00) 20.4 8.89 (16:30) 4.72 (18:50) 0 0 0 0 0
05-09-2017 31.6 (17:30) 12.2 (00:00) 21.9 6.67 (19:50) 3.89 (20:40) 0 0 0 0 0
04-09-2017 27.7 (17:10) 11.1 (00:00) 19.4 7.5 (11:00) 3.89 (18:50) 0 0 0 0 0
03-09-2017 29.6 (18:10) 8.6 (00:00) 19.1 6.94 (17:40) 3.61 (17:40) 0 0 0 0 0
02-09-2017 24.8 (18:00) 6.7 (00:00) 15.7 6.39 (11:40) 3.06 (11:40) 0 0 0 0 0
01-09-2017 23.8 (17:10) 12.7 (00:00) 18.2 11.67 (21:50) 5.28 (21:50) 0 0 0 0 0
31-08-2017 23.8 (17:10) 13.3 (00:00) 18.5 8.61 (02:40) 4.17 (02:40) 0 0 0 0 0
30-08-2017 25.9 (15:00) 14.4 (00:00) 20.1 6.94 (16:00) 3.89 (18:30) 0.2 0 0 0.2 0
29-08-2017 26.4 (15:20) 13.5 (00:00) 19.9 12.5 (18:00) 8.06 (16:00) 3.4 0 3.4 0 0
28-08-2017 30.4 (14:10) 14.6 (00:00) 22.5 8.61 (15:10) 6.11 (14:30) 5.6 0 0 0 5.6
27-08-2017 26.8 (13:00) 16.1 (00:00) 21.4 11.94 (14:10) 5.28 (02:30) 10.2 3.8 0 4 2.4
26-08-2017 34.2 (15:50) 17.3 (00:00) 25.8 16.39 (21:00) 10.83 (21:00) 3.4 0 0 1.6 1.8
25-08-2017 35.2 (16:00) 17.3 (00:00) 26.3 17.22 (21:00) 8.61 (20:50) 0 0 0 0 0
24-08-2017 35.8 (17:10) 17.2 (00:00) 26.5 12.22 (04:50) 8.89 (04:50) 0 0 0 0 0
23-08-2017 32.6 (16:10) 17.2 (00:00) 24.9 12.5 (16:00) 8.33 (16:10) 1.4 0 0 1.4 0
22-08-2017 37.3 (16:30) 18.6 (00:00) 27.9 9.44 (19:50) 7.22 (19:20) 0 0 0 0 0

Gráficas

Temp. máximas Temp. mínimas Temp. medias Precipitaciones Rachas de viento máximas Velocidades máximas media en intervalos de 10 minutos

Datos horarios

Fecha y hora oficial Temperatura (ºC) Velocidad del viento (km/h) Dirección del viento Racha (km/h) Dirección de racha Precipitación (mm) Presión (hPa) Tendencia (hPa) Humedad (%)
2017-09-20 23:00:00 14.7 8 Sudeste 16 Este 0 918.2 0.7 40
2017-09-20 22:00:00 16.7 5 Sur 26 Este 0 918.1 0.8 31
2017-09-20 21:00:00 19 18 Este 28 Este 0 917.8 0.5 24
2017-09-20 20:00:00 22.2 14 Este 18 Este 0 917.5 -0.2 18
2017-09-20 19:00:00 24.9 10 Nordeste 19 Nordeste 0 917.3 -1.1 17
2017-09-20 18:00:00 25.6 9 Nordeste 23 Este 0 917.3 -1.7 16
2017-09-20 17:00:00 26 12 Nordeste 21 Nordeste 0 917.7 -2 15
2017-09-20 16:00:00 26 5 Norte 13 Nordeste 0 918.4 -1.9 14
2017-09-20 15:00:00 25.5 6 Sudeste 16 Este 0 919 -2 15
2017-09-20 14:00:00 24.1 4 Nordeste 10 Este 0 919.7 -1.7 17
2017-09-20 13:00:00 20.5 3 Noroeste 12 Sudoeste 0 920.3 -1.2 23
2017-09-20 12:00:00 17.5 4 Sudoeste 12 Sudoeste 0 921 -0.5 39
2017-09-20 11:00:00 13.5 5 Sur 10 Sur 0 921.4 -0.1 52
2017-09-20 10:00:00 9.8 6 Sur 11 Sur 0 921.5 0.1 64
2017-09-20 09:00:00 4.2 3 Sur 7 Sur 0 921.5 0 85
2017-09-20 08:00:00 2.5 0 Calma 7 Sur 0 921.5 -0.2 86
2017-09-20 07:00:00 2.7 0 Calma 5 Sur 0 921.4 -0.5 84
2017-09-20 06:00:00 3.5 0 Calma 5 Sur 0 921.5 -0.6 80
2017-09-20 05:00:00 4 2 Oeste 4 Oeste 0 921.7 -0.6 85
2017-09-20 04:00:00 4.7 0 Calma 5 Oeste 0 921.9 -0.5 80
2017-09-20 03:00:00 5.9 5 Sudeste 9 Sudeste 0 922.1 -0.4 77
2017-09-20 02:00:00 6.7 3 Sudeste 5 Sudeste 0 922.3 0.2 74
2017-09-20 01:00:00 7.8 4 Sudeste 5 Sudeste 0 922.4 0.4 68
2017-09-20 00:00:00 9.4 4 Sur 6 Sudeste 0 922.5 0.9 66
2017-09-19 23:00:00 11.1 2 Oeste 10 Noroeste 0 922.1 0.9 64
2017-09-19 22:00:00 12.6 3 Noroeste 12 Norte 0 922 1.3 58
2017-09-19 21:00:00 14 4 Noroeste 21 Nordeste 0 921.6 1.1 52
2017-09-19 20:00:00 16.4 10 Norte 30 Nordeste 0 921.2 0.6 43
2017-09-19 19:00:00 19.3 14 Norte 27 Nordeste 0 920.7 -0.2 35
2017-09-19 18:00:00 22 8 Norte 25 Norte 0 920.5 -0.9 31
2017-09-19 17:00:00 21.9 11 Norte 28 Norte 0 920.6 -1.3 28
2017-09-19 16:00:00 21.4 10 Norte 24 Norte 0 920.9 -1.3 31
2017-09-19 15:00:00 20.5 11 Norte 25 Nordeste 0 921.4 -1.2 37
2017-09-19 14:00:00 19.7 11 Norte 24 Norte 0 921.9 -0.8 38
2017-09-19 13:00:00 18.7 7 Noroeste 18 Oeste 0 922.2 -0.3 46
2017-09-19 12:00:00 16.2 4 Noroeste 14 Norte 0 922.6 0.4 56
2017-09-19 11:00:00 14.5 4 Noroeste 10 Norte 0 922.7 1 65
2017-09-19 10:00:00 11.5 3 Oeste 8 Sur 0 922.5 0.9 78
2017-09-19 09:00:00 9.2 4 Sudeste 8 Sur 0 922.2 0.7 84
2017-09-19 08:00:00 8.8 2 Norte 5 Sur 0 921.7 0.4 88
2017-09-19 07:00:00 9 3 Sur 7 Sur 0 921.6 0.2 88
2017-09-19 06:00:00 8.1 5 Sudeste 7 Sur 0 921.5 -0.1 89
2017-09-19 05:00:00 7.4 2 Oeste 7 Sur 0 921.3 -0.1 90
2017-09-19 04:00:00 7.9 7 Sudeste 8 Sudeste 0 921.4 0.2 87
2017-09-19 03:00:00 8.4 0 Calma 5 Sur 0 921.6 0.4 89
2017-09-19 02:00:00 8.9 2 Oeste 6 Sudeste 0 921.4 0.3 86
2017-09-19 01:00:00 10.3 2 Noroeste 9 Oeste 0 921.2 0.6 84
2017-09-19 00:00:00 11 2 Noroeste 9 Norte 0 921.2 1.6 81
2017-09-18 23:00:00 11.9 4 Norte 10 Este 0 921.1 2.3 77
2017-09-18 22:00:00 13.3 6 Norte 17 Norte 0 920.6 2.4 72
2017-09-18 21:00:00 14.6 4 Norte 18 Norte 0 919.6 2.2 66
2017-09-18 20:00:00 16.8 9 Norte 19 Nordeste 0 918.8 1.8 57
2017-09-18 19:00:00 18.2 8 Norte 28 Nordeste 0 918.2 1 48
2017-09-18 18:00:00 20.2 16 Norte 33 Nordeste 0 917.4 0 40
2017-09-18 17:00:00 23.1 13 Noroeste 35 Noroeste 0 917 -0.5 31
2017-09-18 16:00:00 21.9 11 Noroeste 27 Noroeste 0 917.2 -0.6 35
2017-09-18 15:00:00 20.2 10 Norte 25 Noroeste 0 917.4 -0.5 38
2017-09-18 14:00:00 20.9 11 Oeste 30 Noroeste 0 917.5 -0.4 37
2017-09-18 13:00:00 19.7 9 Norte 22 Norte 0 917.8 0.1 40
2017-09-18 12:00:00 17.7 4 Norte 14 Norte 0 917.9 0.4 40
2017-09-18 11:00:00 14.6 3 Este 8 Norte 0 917.9 0.5 42
2017-09-18 10:00:00 11.3 3 Oeste 8 Sur 0 917.7 0.8 56
2017-09-18 09:00:00 6.5 3 Sur 7 Sur 0 917.5 1 72
2017-09-18 08:00:00 4.8 0 Calma 6 Sur 0 917.4 1.1 81
2017-09-18 07:00:00 4.7 0 Calma 5 Sudeste 0 916.9 0.3 80
2017-09-18 06:00:00 4.9 3 Sur 4 Sudeste 0 916.5 -0.2 78
2017-09-18 05:00:00 5.1 3 Noroeste 6 Sur 0 916.3 -0.9 76
2017-09-18 04:00:00 5.7 2 Oeste 6 Sudeste 0 916.6 -1.1 75
2017-09-18 03:00:00 6.9 4 Sur 8 Sur 0 916.7 -0.8 65
2017-09-18 02:00:00 8.1 4 Sur 8 Sur 0 917.2 -0.3 63
2017-09-18 01:00:00 8.8 0 Calma 8 Norte 0 917.7 0.3 69
2017-09-18 00:00:00 9.5 3 Noroeste 6 Noroeste 0 917.5 0.9 64
2017-09-17 23:00:00 11 0 Calma 5 Nordeste 0 917.5 1.8 59
2017-09-17 22:00:00 13.2 3 Este 9 Nordeste 0 917.4 1.8 51
2017-09-17 21:00:00 16 4 Norte 16 Noroeste 0 916.6 1 42
2017-09-17 20:00:00 19.3 6 Noroeste 20 Oeste 0 915.7 0.2 25
2017-09-17 19:00:00 21.3 6 Noroeste 26 Noroeste 0 915.6 -0.1 26
2017-09-17 18:00:00 21.7 9 Noroeste 21 Noroeste 0 915.6 -0.5 24
2017-09-17 17:00:00 22.7 10 Noroeste 27 Noroeste 0 915.5 -1.3 22
2017-09-17 16:00:00 21.9 11 Noroeste 26 Noroeste 0 915.7 -1.6 24
2017-09-17 15:00:00 22.6 9 Oeste 28 Noroeste 0 916.1 -1.8 24
2017-09-17 14:00:00 21.6 12 Oeste 26 Oeste 0 916.8 -1.5 24
2017-09-17 13:00:00 20.4 10 Oeste 23 Oeste 0 917.3 -0.9 28
2017-09-17 12:00:00 18.4 7 Sur 16 Sudoeste 0 917.9 0 33
2017-09-17 11:00:00 14.1 6 Sur 14 Sudeste 0 918.3 0.9 45
2017-09-17 10:00:00 10.1 9 Sudeste 14 Sudeste 0 918.2 1.3 61
2017-09-17 09:00:00 6.5 7 Sudeste 13 Sur 0 917.9 1 74
2017-09-17 08:00:00 3.6 8 Sudeste 15 Este 0 917.4 0.3 81
2017-09-17 07:00:00 3.1 6 Sudeste 10 Sudeste 0 916.9 -0.1 86
2017-09-17 06:00:00 2.9 3 Sudeste 10 Sudeste 0 916.9 -0.3 88
2017-09-17 05:00:00 2.5 0 Calma 3 Norte 0 917.1 0.1 88
2017-09-17 04:00:00 3.4 0 Calma 8 Sur 0 917 -0.5 85
2017-09-17 03:00:00 4.1 5 Sur 9 Sur 0 917.2 -0.1 77
2017-09-17 02:00:00 4.7 2 Sudeste 5 Sudeste 0 917 -0.2 82
2017-09-17 01:00:00 6.2 3 Oeste 11 Sudeste 0 917.5 0.8 77
2017-09-17 00:00:00 7 4 Sudeste 7 Sudeste 0 917.3 1.7 71
2017-09-16 23:00:00 8.3 2 Norte 8 Noroeste 0 917.2 2.5 70
2017-09-16 22:00:00 9.8 4 Norte 25 Nordeste 0 916.7 2.8 67
2017-09-16 21:00:00 11.7 14 Nordeste 28 Nordeste 0 915.6 2.3 57
2017-09-16 20:00:00 13.9 11 Norte 29 Nordeste 0 914.7 1.4 46
2017-09-16 19:00:00 17.5 9 Norte 26 Norte 0 913.9 0.3 34
2017-09-16 18:00:00 19 8 Norte 31 Oeste 0 913.3 -0.6 29
2017-09-16 17:00:00 19.1 9 Norte 24 Norte 0 913.3 -1 28
2017-09-16 16:00:00 17.1 9 Norte 24 Norte 0 913.6 -1.1 36
2017-09-16 15:00:00 17.2 10 Norte 26 Norte 0 913.9 -1.2 37
2017-09-16 14:00:00 17 5 Norte 17 Norte 0 914.3 -1.1 41
2017-09-16 13:00:00 15.5 5 Noroeste 14 Oeste 0 914.7 -0.6 47
2017-09-16 12:00:00 13.6 4 Este 10 Sudoeste 0 915.1 0.2 54
2017-09-16 11:00:00 11.3 4 Este 8 Este 0 915.4 0.9 60
2017-09-16 10:00:00 7.5 0 Calma 4 Sudeste 0 915.3 0.9 74
2017-09-16 09:00:00 2.9 0 Calma 3 Sudeste 0 914.9 0.3 89
2017-09-16 08:00:00 0.8 2 Sudeste 7 Sudeste 0 914.5 -0.1 91
2017-09-16 07:00:00 1.2 5 Sudeste 6 Sudeste 0 914.4 -0.3 91
2017-09-16 06:00:00 1.9 0 Calma 3 Sur 0 914.6 -0.3 91
2017-09-16 05:00:00 2.8 2 Sudoeste 7 Sur 0 914.6 -0.6 89
2017-09-16 04:00:00 3.3 6 Sudeste 10 Sur 0 914.7 -0.8 88
2017-09-16 03:00:00 4.6 2 Nordeste 5 Sudoeste 0 914.9 -0.9 86
2017-09-16 02:00:00 5.7 4 Oeste 12 Nordeste 0 915.2 -0.6 87
2017-09-16 01:00:00 6.6 4 Norte 16 Norte 0 915.5 0 81
2017-09-16 00:00:00 7.8 4 Norte 11 Nordeste 0 915.8 1 77
2017-09-15 23:00:00 9 6 Norte 15 Norte 0 915.8 1.6 69
2017-09-15 22:00:00 10.1 6 Norte 23 Norte 0 915.5 1.5 66
2017-09-15 21:00:00 11.7 12 Norte 24 Norte 0 914.8 0.8 61
2017-09-15 20:00:00 12.9 6 Norte 17 Norte 0 914.2 0.2 55
2017-09-15 19:00:00 13.1 9 Norte 23 Norte 0 914 -0.6 53
2017-09-15 18:00:00 13.1 9 Norte 26 Nordeste 0 914 -1.1 59
2017-09-15 17:00:00 12.9 9 Norte 18 Nordeste 0 914 -1.3 61
2017-09-15 16:00:00 12 7 Nordeste 17 Norte 0 914.6 -1 65
2017-09-15 15:00:00 10.8 9 Norte 23 Norte 0 915.1 -0.8 69
2017-09-15 14:00:00 10.4 10 Nordeste 19 Norte 0 915.3 -0.5 70
2017-09-15 13:00:00 9.7 11 Norte 28 Nordeste 0 915.6 -0.1 77
2017-09-15 12:00:00 10.1 12 Norte 27 Norte 0 915.9 0.7 72
2017-09-15 11:00:00 9.8 10 Norte 29 Norte 0 915.8 0.5 73
2017-09-15 10:00:00 9.5 12 Norte 32 Norte 0 915.7 0.5 74
2017-09-15 09:00:00 9.5 13 Norte 28 Nordeste 0 915.2 -0.1 73
2017-09-15 08:00:00 9.6 12 Norte 31 Nordeste 0 915.3 -0.2 72
2017-09-15 07:00:00 10.2 14 Norte 32 Norte 0 915.2 -0.8 66
2017-09-15 06:00:00 10.5 15 Nordeste 31 Nordeste 0 915.3 -1.4 62
2017-09-15 05:00:00 10.9 12 Norte 24 Nordeste 0 915.5 -1.7 60
2017-09-15 04:00:00 11.1 13 Norte 25 Norte 0 916 -1.8 58
2017-09-15 03:00:00 10 4 Norte 8 Norte 0 916.7 -1.6 73
2017-09-15 02:00:00 9.5 4 Noroeste 9 Noroeste 0 917.2 -1.4 76
2017-09-15 01:00:00 10.2 3 Noroeste 8 Norte 0 917.8 -0.9 73
2017-09-15 00:00:00 11.1 4 Norte 15 Norte 0 918.3 -0.1 69
2017-09-14 23:00:00 11.5 6 Norte 22 Norte 0 918.6 1 69
2017-09-14 22:00:00 12.1 13 Norte 30 Nordeste 0 918.7 1.5 66
2017-09-14 21:00:00 12.9 14 Norte 34 Nordeste 0 918.4 1.1 63
2017-09-14 20:00:00 14.2 20 Norte 42 Norte 0 917.6 0.1 58
2017-09-14 19:00:00 16.6 15 Norte 33 Nordeste 0 917.2 -0.6 54
2017-09-14 18:00:00 19.6 17 Norte 33 Norte 0 917.3 -1.2 50
2017-09-14 17:00:00 22.4 14 Norte 33 Norte 0 917.5 -1.2 44
2017-09-14 16:00:00 23.1 13 Norte 32 Nordeste 0 917.8 -1.6 45
2017-09-14 15:00:00 22.4 17 Nordeste 34 Nordeste 0 918.5 -1 49
2017-09-14 14:00:00 23.3 14 Nordeste 31 Norte 0 918.7 -0.5 46
2017-09-14 13:00:00 23.4 9 Norte 27 Norte 0 919.4 0.4 44
2017-09-14 12:00:00 22.8 10 Norte 29 Norte 0 919.5 0.6 40
2017-09-14 11:00:00 21.9 4 Norte 9 Noroeste 0 919.2 0.4 45
2017-09-14 10:00:00 18 2 Oeste 8 Sur 0 919 0.3 59
2017-09-14 09:00:00 14.3 5 Sudeste 9 Sur 0 918.9 0.4 76
2017-09-14 08:00:00 10.6 3 Nordeste 8 Sudeste 0 918.8 0.4 83
2017-09-14 07:00:00 11.1 3 Sur 9 Norte 0 918.7 0.1 81
2017-09-14 06:00:00 11.8 4 Sur 8 Sur 0 918.5 -0.5 77
2017-09-14 05:00:00 13.1 3 Sudeste 13 Norte 0 918.4 -0.9 73
2017-09-14 04:00:00 14.9 5 Sudeste 9 Sudeste 0 918.6 -1.1 66
2017-09-14 03:00:00 15.3 6 Sudeste 12 Sudeste 0 919 -0.5 59
2017-09-14 02:00:00 16.1 6 Sudeste 11 Sudeste 0 919.3 -0.7 57
2017-09-14 01:00:00 16.6 6 Sudeste 10 Sur 0 919.7 0.2 50
2017-09-14 00:00:00 17.7 4 Sur 11 Sudeste 0 919.5 0.5 50
2017-09-13 23:00:00 19 4 Sur 14 Este 0 920 1.2 49
2017-09-13 22:00:00 22.2 6 Este 18 Este 0 919.5 0.6 38
2017-09-13 21:00:00 24.3 0 Calma 13 Oeste 0 919 -0.1 30
2017-09-13 20:00:00 27.4 8 Noroeste 20 Noroeste 0 918.8 -0.9 25
2017-09-13 19:00:00 30.1 8 Noroeste 23 Oeste 0 918.9 -1.6 22
2017-09-13 18:00:00 31.6 6 Sudoeste 17 Sur 0 919.1 -2.1 21
2017-09-13 17:00:00 31.1 8 Sur 19 Sudoeste 0 919.7 -2.4 22
2017-09-13 16:00:00 29.6 5 Oeste 16 Sudoeste 0 920.5 -2.2 26
2017-09-13 15:00:00 28.5 7 Sudoeste 21 Sudoeste 0 921.2 -2 27
2017-09-13 14:00:00 27.2 9 Oeste 20 Sudoeste 0 922.1 -1.1 32
2017-09-13 13:00:00 25.9 7 Sudoeste 16 Oeste 0 922.7 -0.5 33
2017-09-13 12:00:00 23.5 8 Sudoeste 16 Sudoeste 0 923.2 0.2 38
2017-09-13 11:00:00 20 5 Sur 11 Sudeste 0 923.2 0.6 45
2017-09-13 10:00:00 16 5 Sur 16 Sur 0 923.2 0.9 51
2017-09-13 09:00:00 12.2 11 Sudeste 15 Sudeste 0 923 1.1 62
2017-09-13 08:00:00 8.8 5 Sur 12 Sudeste 0 922.6 0.6 79
2017-09-13 07:00:00 7.9 4 Sudeste 8 Sudeste 0 922.3 0 84
2017-09-13 06:00:00 8.7 3 Sur 7 Este 0 921.9 -0.4 82
2017-09-13 05:00:00 10.5 6 Sudeste 12 Sudeste 0 922 -0.2 70
2017-09-13 04:00:00 9.9 8 Sudeste 12 Sudeste 0 922.3 0.5 73
2017-09-13 03:00:00 9.6 0 Calma 4 Norte 0 922.3 0.6 79
2017-09-13 02:00:00 10.2 0 Calma 6 Sur 0 922.2 0.7 79
2017-09-13 01:00:00 11.1 3 Sudeste 5 Sudoeste 0 921.8 0.8 72
2017-09-13 00:00:00 12.2 4 Sur 8 Sur 0 921.7 1.6 66
2017-09-12 23:00:00 13.7 3 Sur 5 Norte 0 921.5 2.3 65
2017-09-12 22:00:00 15.4 3 Norte 6 Norte 0 921 2.4 62
2017-09-12 21:00:00 17.9 4 Noroeste 10 Norte 0 920.1 1.5 53
2017-09-12 20:00:00 21.1 7 Norte 21 Nordeste 0 919.2 0.5 40
2017-09-12 19:00:00 23.5 6 Noroeste 22 Norte 0 918.6 0 33
2017-09-12 18:00:00 23.5 8 Noroeste 26 Noroeste 0 918.6 -0.1 32
2017-09-12 17:00:00 23.6 8 Noroeste 20 Noroeste 0 918.7 -0.1 36
2017-09-12 16:00:00 21.9 9 Norte 22 Norte 0 918.6 -0.5 40
2017-09-12 15:00:00 21.7 7 Noroeste 22 Norte 0 918.7 -0.3 42
2017-09-12 14:00:00 19.8 9 Norte 19 Norte 0 918.8 0.1 46
2017-09-12 13:00:00 17.7 6 Norte 14 Norte 0 919.1 2 58
2017-09-12 12:00:00 16.8 6 Noroeste 13 Norte 0 919 1.8 65
2017-09-12 11:00:00 14.4 4 Norte 12 Sudeste 0 918.7 2.1 75
2017-09-12 10:00:00 13.4 4 Sudoeste 10 Sudeste 0 917.1 0.7 81
2017-09-12 09:00:00 12 2 Sudoeste 9 Sudeste 0 917.2 1 87
2017-09-12 08:00:00 11.2 3 Nordeste 8 Sudeste 0 916.6 0.4 89
2017-09-12 07:00:00 11.2 4 Este 9 Este 0 916.4 0.7 88
2017-09-12 06:00:00 10.7 3 Norte 10 Nordeste 0 916.2 0.6 94
2017-09-12 05:00:00 10.5 0 Calma 9 Norte 0 916.2 0.9 91
2017-09-12 04:00:00 11 3 Norte 9 Noroeste 0 915.7 0.7 90
2017-09-12 03:00:00 11.4 4 Noroeste 12 Norte 0 915.6 0.8 88
2017-09-12 02:00:00 12.1 2 Nordeste 8 Noroeste 0 915.3 1 84
2017-09-12 01:00:00 13.2 4 Norte 12 Norte 0 915 0.7 81
2017-09-12 00:00:00 14 4 Norte 11 Noroeste 0 914.8 1.6 78
2017-09-11 23:00:00 15.5 3 Noroeste 12 Norte 0 914.3 1.5 73
2017-09-11 22:00:00 17.3 5 Norte 14 Norte 0 914.3 1.7 68
2017-09-11 21:00:00 19.6 4 Norte 21 Norte 0 913.2 0.6 61
2017-09-11 20:00:00 23.6 10 Norte 24 Norte 0 912.8 0.3 46
2017-09-11 19:00:00 26.2 9 Noroeste 28 Norte 0 912.6 -0.2 36
2017-09-11 18:00:00 26.5 11 Noroeste 28 Norte 0 912.6 -0.8 35
2017-09-11 17:00:00 27.3 11 Noroeste 31 Norte 0 912.5 -1.2 35
2017-09-11 16:00:00 27.1 13 Noroeste 34 Noroeste 0 912.8 -1.4 34
2017-09-11 15:00:00 26.6 12 Noroeste 34 Norte 0 913.4 -1.2 38
2017-09-11 14:00:00 25.8 16 Noroeste 40 Noroeste 0 913.7 -1.1 39
2017-09-11 13:00:00 24 13 Noroeste 35 Noroeste 0 914.2 -0.6 47
2017-09-11 12:00:00 21.4 14 Noroeste 34 Noroeste 0 914.6 -0.1 53
2017-09-11 11:00:00 20.6 14 Noroeste 32 Norte 0 914.8 0.1 56
2017-09-11 10:00:00 18.5 4 Este 10 Sudeste 0 914.8 0.4 46
2017-09-11 09:00:00 12.3 4 Sur 11 Noroeste 0 914.7 0.4 65
2017-09-11 08:00:00 9.7 4 Sur 9 Oeste 0 914.7 0.3 66
2017-09-11 07:00:00 10.1 2 Sur 8 Sur 0 914.4 -0.3 65
2017-09-11 06:00:00 11.6 4 Sur 9 Noroeste 0 914.3 -0.5 60
2017-09-11 05:00:00 13.5 3 Noroeste 12 Oeste 0 914.4 -0.7 49
2017-09-11 04:00:00 12.3 0 Calma 10 Noroeste 0 914.7 -0.4 60
2017-09-11 03:00:00 13.7 2 Noroeste 7 Sur 0 914.8 -0.4 65
2017-09-11 02:00:00 13 5 Sudoeste 7 Sudoeste 0 915.1 0 66
2017-09-11 01:00:00 12.4 5 Sur 7 Sur 0 915.1 0.1 64
2017-09-11 00:00:00 12.6 2 Sudoeste 5 Oeste 0 915.2 0.8 65
2017-09-10 23:00:00 13.4 0 Calma 6 Sur 0 915.1 1.4 57
2017-09-10 22:00:00 14 2 Norte 9 Norte 0 915 1.3 56
2017-09-10 21:00:00 15.6 4 Noroeste 13 Norte 0 914.4 0.9 49
2017-09-10 20:00:00 18.3 6 Norte 28 Noroeste 0 913.7 0.2 39
2017-09-10 19:00:00 20 10 Norte 29 Nordeste 0 913.7 -0.1 35
2017-09-10 18:00:00 20.6 12 Noroeste 35 Norte 0 913.5 -0.8 33
2017-09-10 17:00:00 20.1 12 Norte 36 Noroeste 0 913.5 -0.8 36
2017-09-10 16:00:00 19.9 13 Noroeste 33 Noroeste 0 913.8 -0.4 38
2017-09-10 15:00:00 19.6 13 Noroeste 33 Noroeste 0 914.3 0.1 39
2017-09-10 14:00:00 18.3 12 Noroeste 29 Oeste 0 914.3 0.5 42
2017-09-10 13:00:00 15.3 13 Norte 37 Noroeste 0 914.2 1.1 52
2017-09-10 12:00:00 15.7 13 Noroeste 35 Noroeste 0 914.2 1.3 52
2017-09-10 11:00:00 13.3 13 Norte 41 Noroeste 0 913.8 1.3 57
2017-09-10 10:00:00 12 11 Norte 26 Noroeste 0 913.1 1.2 67
2017-09-10 09:00:00 10.7 6 Norte 17 Noroeste 0 912.9 1.2 75
2017-09-10 08:00:00 9.2 6 Norte 18 Noroeste 0 912.5 1 82
2017-09-10 07:00:00 9.1 4 Norte 9 Nordeste 0 911.9 0.6 84
2017-09-10 06:00:00 8.7 0 Calma 11 Noroeste 0 911.7 0.3 87
2017-09-10 05:00:00 9.7 5 Norte 12 Norte 0 911.5 0.1 85
2017-09-10 04:00:00 9.2 4 Oeste 7 Oeste 0 911.3 -0.1 91
2017-09-10 03:00:00 9 2 Nordeste 4 Nordeste 0 911.4 0.2 93
2017-09-10 02:00:00 9.2 2 Nordeste 6 Norte 0 911.4 0.5 90
2017-09-10 01:00:00 9.5 3 Oeste 6 Norte 0 911.4 1 92
2017-09-10 00:00:00 9.8 4 Nordeste 12 Norte 0 911.2 1.4 89
2017-09-09 23:00:00 10.5 4 Norte 11 Norte 0 910.9 1.4 86
2017-09-09 22:00:00 11 3 Norte 12 Nordeste 0 910.4 1.7 90
2017-09-09 21:00:00 11.9 4 Norte 19 Nordeste 0.2 909.8 0.8 87
2017-09-09 20:00:00 13.4 9 Noroeste 26 Noroeste 0.2 909.5 0.9 78
2017-09-09 19:00:00 15.8 8 Norte 27 Norte 0 908.7 0.3 56
2017-09-09 18:00:00 14.4 17 Norte 35 Norte 0 909 -0.3 63
2017-09-09 17:00:00 15.5 15 Norte 31 Norte 0 908.6 -1.2 58
2017-09-09 16:00:00 16.3 13 Norte 26 Nordeste 0 908.4 -1.5 60
2017-09-09 15:00:00 15 14 Norte 34 Nordeste 0 909.3 -0.5 66
2017-09-09 14:00:00 13.3 17 Norte 33 Nordeste 0 909.8 0.3 72
2017-09-09 13:00:00 15.1 15 Nordeste 28 Norte 0 909.9 0.5 73
2017-09-09 12:00:00 16.6 9 Norte 26 Norte 0 909.8 0.1 65
2017-09-09 11:00:00 16 6 Norte 21 Oeste 0 909.5 0.3 60
2017-09-09 10:00:00 12.9 3 Oeste 5 Nordeste 0 909.4 0.4 71
2017-09-09 09:00:00 10.2 2 Norte 6 Sudoeste 0 909.7 0.8 77
2017-09-09 08:00:00 9.7 2 Sudeste 5 Noroeste 0 909.2 0.2 75
2017-09-09 07:00:00 10.2 2 Norte 7 Noroeste 0 909 -0.4 74
2017-09-09 06:00:00 11.2 0 Calma 10 Sudeste 0 908.9 -1.3 66
2017-09-09 05:00:00 13.8 6 Sudeste 13 Sudeste 0 909 -1.8 62
2017-09-09 04:00:00 13.7 8 Sudeste 18 Sudeste 0 909.4 -1.9 56
2017-09-09 03:00:00 11.6 4 Sudeste 8 Sur 0 910.2 -1.3 61
2017-09-09 02:00:00 12.4 4 Sudeste 8 Sudeste 0 910.8 -1 51
2017-09-09 01:00:00 13.6 4 Sur 7 Sudeste 0 911.3 -0.8 63
2017-09-09 00:00:00 15 4 Nordeste 10 Sur 0 911.5 0.1 57
2017-09-08 23:00:00 17.8 6 Sudeste 8 Sur 0 911.8 0.4 46
2017-09-08 22:00:00 20.6 5 Noroeste 10 Norte 0 912.1 0.5 37
2017-09-08 21:00:00 24 6 Oeste 19 Oeste 0 911.4 -0.5 22
2017-09-08 20:00:00 26.6 12 Oeste 22 Oeste 0 911.4 -1 19
2017-09-08 19:00:00 28.6 11 Noroeste 27 Oeste 0 911.6 -1.7 17
2017-09-08 18:00:00 29.3 10 Oeste 27 Noroeste 0 911.9 -2.2 17
2017-09-08 17:00:00 29.7 8 Oeste 26 Noroeste 0 912.4 -2.4 18
2017-09-08 16:00:00 29.1 10 Oeste 24 Sudoeste 0 913.3 -2.3 18
2017-09-08 15:00:00 28.6 10 Oeste 24 Noroeste 0 914.1 -2.2 20
2017-09-08 14:00:00 28 9 Sudoeste 18 Sudoeste 0 914.8 -2.2 21
2017-09-08 13:00:00 25.6 6 Sudoeste 15 Sur 0 915.6 -1.8 25
2017-09-08 12:00:00 21.5 6 Sur 14 Sur 0 916.3 -1 36
2017-09-08 11:00:00 17.4 9 Sur 15 Sur 0 917 -0.3 46
2017-09-08 10:00:00 13 5 Sur 12 Sur 0 917.4 0.3 62
2017-09-08 09:00:00 8.5 2 Sur 6 Sur 0 917.3 0 82
2017-09-08 08:00:00 6 2 Noroeste 3 Noroeste 0 917.3 -0.3 92
2017-09-08 07:00:00 6.5 0 Calma 3 Norte 0 917.1 -1 89
2017-09-08 06:00:00 7.2 2 Sur 5 Nordeste 0 917.3 -1.2 88
2017-09-08 05:00:00 8 4 Sur 8 Sudeste 0 917.6 -1.1 81
2017-09-08 04:00:00 8.3 2 Noroeste 4 Nordeste 0 918.1 -0.8 84
2017-09-08 03:00:00 9.5 3 Sur 6 Sudeste 0 918.5 -0.4 76
2017-09-08 02:00:00 10.6 3 Sudoeste 5 Sur 0 918.7 -0.3 76
2017-09-08 01:00:00 11.9 0 Calma 5 Sur 0 918.9 0.1 75
2017-09-08 00:00:00 13.6 4 Este 6 Este 0 918.9 0.8 68
2017-09-07 23:00:00 15.2 4 Noroeste 6 Norte 0 919 1.6 63
2017-09-07 22:00:00 16.8 4 Norte 10 Noroeste 0 918.8 1.6 56
2017-09-07 21:00:00 18.5 5 Norte 28 Norte 0 918.1 1 49
2017-09-07 20:00:00 21.3 14 Norte 24 Nordeste 0 917.4 0 40
2017-09-07 19:00:00 24.4 10 Norte 19 Norte 0 917.2 -0.7 28
2017-09-07 18:00:00 26.1 8 Norte 20 Norte 0 917.1 -1.4 22
2017-09-07 17:00:00 26.8 8 Noroeste 20 Noroeste 0 917.4 -1.8 26
2017-09-07 16:00:00 26.3 7 Noroeste 19 Noroeste 0 917.9 -1.9 21
2017-09-07 15:00:00 25.5 8 Norte 18 Norte 0 918.5 -1.9 24
2017-09-07 14:00:00 23.5 7 Norte 19 Noroeste 0 919.2 -1.3 28
2017-09-07 13:00:00 21.3 6 Noroeste 17 Norte 0 919.8 -0.5 44
2017-09-07 12:00:00 18.9 7 Noroeste 15 Noroeste 0 920.4 0 57
2017-09-07 11:00:00 16.7 6 Noroeste 12 Noroeste 0 920.5 0.3 60
2017-09-07 10:00:00 13.9 3 Noroeste 10 Noroeste 0 920.3 0.3 70
2017-09-07 09:00:00 11.2 4 Noroeste 8 Noroeste 0 920.4 0.1 80
2017-09-07 08:00:00 8.9 2 Noroeste 7 Norte 0 920.2 -0.5 89
2017-09-07 07:00:00 9.4 4 Norte 5 Norte 0 920 -0.8 87
2017-09-07 06:00:00 10.2 3 Norte 8 Norte 0 920.3 -0.7 86
2017-09-07 05:00:00 10.8 5 Norte 9 Norte 0 920.7 -1 83
2017-09-07 04:00:00 11.3 4 Norte 8 Norte 0 920.8 -1.1 83
2017-09-07 03:00:00 12 3 Norte 11 Norte 0 921 -0.7 80
2017-09-07 02:00:00 12.8 4 Norte 10 Noroeste 0 921.7 -0.1 78
2017-09-07 01:00:00 13.7 3 Norte 12 Norte 0 921.9 0.5 77
2017-09-07 00:00:00 14.5 6 Norte 12 Noroeste 0 921.7 0.7 74
2017-09-06 23:00:00 15.8 4 Norte 11 Noroeste 0 921.8 1 71
2017-09-06 22:00:00 17.1 3 Noroeste 22 Norte 0 921.4 0.5 68
2017-09-06 21:00:00 18.6 10 Norte 28 Nordeste 0 921 0.2 63
2017-09-06 20:00:00 21.4 13 Norte 28 Nordeste 0 920.8 -0.2 56
2017-09-06 19:00:00 23.3 14 Norte 30 Nordeste 0 920.9 -0.3 49
2017-09-06 18:00:00 24.5 16 Nordeste 30 Nordeste 0 920.8 -1 46
2017-09-06 17:00:00 25.5 15 Nordeste 32 Norte 0 921 -1.5 45
2017-09-06 16:00:00 25.8 14 Nordeste 31 Norte 0 921.2 -1.9 44
2017-09-06 15:00:00 26.1 13 Norte 28 Norte 0 921.8 -1.7 43
2017-09-06 14:00:00 25.4 12 Norte 23 Nordeste 0 922.5 -1.3 44
2017-09-06 13:00:00 24.1 11 Norte 26 Norte 0 923.1 -0.7 46
2017-09-06 12:00:00 22.8 9 Norte 27 Nordeste 0 923.5 -0.3 50
2017-09-06 11:00:00 20.6 13 Norte 25 Nordeste 0 923.8 0.5 56
2017-09-06 10:00:00 18.5 10 Norte 21 Norte 0 923.8 0.8 62
2017-09-06 09:00:00 16.1 4 Noroeste 9 Noroeste 0 923.8 0.9 75
2017-09-06 08:00:00 14.4 4 Norte 9 Oeste 0 923.3 0.2 85
2017-09-06 07:00:00 14.3 4 Norte 10 Norte 0 923 -0.3 87
2017-09-06 06:00:00 14.8 4 Norte 11 Norte 0 922.9 -0.6 85
2017-09-06 05:00:00 15.3 4 Norte 10 Norte 0 923.1 -0.3 84
2017-09-06 04:00:00 15.8 4 Norte 14 Norte 0 923.3 -0.2 82
2017-09-06 03:00:00 16.8 5 Norte 13 Norte 0 923.5 0.3 78
2017-09-06 02:00:00 17.8 4 Norte 13 Norte 0 923.4 0.5 78
2017-09-06 01:00:00 18.3 4 Noroeste 10 Norte 0 923.5 1.1 79
2017-09-06 00:00:00 19.7 3 Sur 6 Sudeste 0 923.2 1.8 65
2017-09-05 23:00:00 21.2 3 Norte 4 Norte 0 922.9 2.3 60
2017-09-05 22:00:00 22.9 3 Nordeste 16 Este 0 922.4 2.1 55
2017-09-05 21:00:00 24.9 10 Este 20 Este 0 921.4 1.1 48
2017-09-05 20:00:00 27.5 10 Nordeste 24 Norte 0 920.6 0.1 40
2017-09-05 19:00:00 30.8 5 Norte 18 Norte 0 920.3 -0.7 29
2017-09-05 18:00:00 31.2 7 Noroeste 23 Oeste 0 920.3 -1.3 30
2017-09-05 17:00:00 31.2 8 Oeste 24 Oeste 0 920.5 -1.4 32
2017-09-05 16:00:00 29.5 6 Norte 18 Nordeste 0 921 -1.6 33
2017-09-05 15:00:00 29.6 9 Noroeste 24 Oeste 0 921.6 -1.2 36
2017-09-05 14:00:00 28.4 5 Oeste 14 Oeste 0 921.9 -0.8 40
2017-09-05 13:00:00 27.2 6 Sudoeste 13 Sur 0 922.6 0 44
2017-09-05 12:00:00 24.7 4 Sur 15 Sudeste 0 922.8 0.6 53
2017-09-05 11:00:00 21.8 6 Sur 12 Sur 0 922.7 0.8 65
2017-09-05 10:00:00 19 5 Sudoeste 8 Sudoeste 0 922.6 0.8 75
2017-09-05 09:00:00 16.2 5 Sudeste 12 Sudeste 0 922.2 0.7 82
2017-09-05 08:00:00 12.3 4 Sur 8 Sur 0 921.9 0.5 93
2017-09-05 07:00:00 12.3 0 Calma 5 Norte 0 921.8 0.4 92
2017-09-05 06:00:00 13.1 2 Sudeste 5 Nordeste 0 921.5 -0.1 89
2017-09-05 05:00:00 13.6 2 Oeste 9 Sudeste 0 921.4 -0.1 86
2017-09-05 04:00:00 14.6 5 Sudeste 12 Sudeste 0 921.4 0.2 82
2017-09-05 03:00:00 13.9 2 Norte 5 Oeste 0 921.6 0.2 84
2017-09-05 02:00:00 15.1 0 Calma 5 Este 0 921.5 0.7 79
2017-09-05 01:00:00 15.9 0 Calma 5 Norte 0 921.2 1.1 77
2017-09-05 00:00:00 17.2 5 Sudeste 6 Sur 0 921.4 2.3 68
2017-09-04 23:00:00 18.5 0 Calma 4 Norte 0 920.8 2.3 65
2017-09-04 22:00:00 20.3 2 Sudeste 10 Nordeste 0 920.1 2.1 56
2017-09-04 21:00:00 22.2 6 Nordeste 18 Nordeste 0 919.1 1.7 48
2017-09-04 20:00:00 24.5 9 Nordeste 22 Este 0 918.5 1.2 42
2017-09-04 19:00:00 25.7 10 Nordeste 24 Nordeste 0 918 0.7 39
2017-09-04 18:00:00 27.4 7 Norte 18 Nordeste 0 917.4 0.1 36
2017-09-04 17:00:00 27.3 6 Noroeste 18 Nordeste 0 917.3 0.2 36
2017-09-04 16:00:00 26.3 8 Norte 23 Norte 0 917.3 0.2 37
2017-09-04 15:00:00 26.2 10 Norte 26 Este 0 917.3 0.3 40
2017-09-04 14:00:00 25.4 7 Noroeste 18 Noroeste 0 917.1 0.2 41
2017-09-04 13:00:00 24.3 8 Noroeste 18 Norte 0 917.1 0.9 43
2017-09-04 12:00:00 22.6 8 Norte 21 Norte 0 917 1.1 46
2017-09-04 11:00:00 20.9 11 Norte 27 Norte 0 916.9 1.7 50
2017-09-04 10:00:00 18.1 0 Calma 4 Oeste 0 916.2 1.8 56
2017-09-04 09:00:00 14.2 0 Calma 4 Norte 0 915.9 1.7 72
2017-09-04 08:00:00 11.2 2 Nordeste 8 Sudeste 0 915.2 1.2 80
2017-09-04 07:00:00 11.8 2 Sudeste 6 Sur 0 914.4 0.5 78
2017-09-04 06:00:00 12.4 2 Sur 8 Noroeste 0 914.2 0.3 77
2017-09-04 05:00:00 14.6 7 Sudeste 13 Sudeste 0 914 -0.1 64
2017-09-04 04:00:00 13.8 9 Sudeste 13 Sudeste 0 913.9 -0.8 69
2017-09-04 03:00:00 14.3 4 Sur 8 Sudoeste 0 913.9 -1.1 66
2017-09-04 02:00:00 15.4 5 Sur 11 Este 0 914.1 -1.2 61
2017-09-04 01:00:00 16.4 6 Sudeste 12 Este 0 914.7 -0.3 57
2017-09-04 00:00:00 17.9 0 Calma 8 Norte 0 915 0.9 51
2017-09-03 23:00:00 19.4 3 Nordeste 10 Norte 0 915.3 1.5 45
2017-09-03 22:00:00 21.6 5 Noroeste 18 Este 0 915 0.9 40
2017-09-03 21:00:00 23.6 10 Este 19 Este 0 914.1 -0.1 34
2017-09-03 20:00:00 25.6 3 Norte 16 Norte 0 913.8 -0.6 33
2017-09-03 19:00:00 28.3 8 Norte 19 Noroeste 0 914.1 -0.9 24
2017-09-03 18:00:00 29.5 6 Noroeste 25 Noroeste 0 914.2 -1.3 23
2017-09-03 17:00:00 28.9 8 Norte 22 Noroeste 0 914.4 -1.6 23
2017-09-03 16:00:00 28.2 6 Norte 19 Norte 0 915 -1.7 22
2017-09-03 15:00:00 27.5 9 Norte 22 Noroeste 0 915.5 -2 22
2017-09-03 14:00:00 26.5 9 Oeste 20 Noroeste 0 916 -2 23
2017-09-03 13:00:00 24.8 4 Sudoeste 11 Sur 0 916.7 -1.4 31
2017-09-03 12:00:00 21.2 5 Sudoeste 11 Sur 0 917.5 -0.8 40
2017-09-03 11:00:00 16.1 6 Sur 16 Sur 0 918 -0.5 59
2017-09-03 10:00:00 13.9 8 Sudeste 12 Sur 0 918.1 -0.4 62
2017-09-03 09:00:00 12.2 7 Sur 14 Sudeste 0 918.3 -0.2 68
2017-09-03 08:00:00 9.9 6 Sur 11 Sur 0 918.5 -0.3 78
2017-09-03 07:00:00 10.6 4 Sudeste 14 Sudeste 0 918.5 -0.7 76
2017-09-03 06:00:00 9.7 8 Sudeste 13 Sudeste 0 918.5 -1 78
2017-09-03 05:00:00 8.7 2 Noroeste 3 Noroeste 0 918.8 -1.4 91
2017-09-03 04:00:00 9.1 2 Sur 6 Nordeste 0 919.2 -1.4 88
2017-09-03 03:00:00 9.9 2 Noroeste 9 Sur 0 919.5 -1.3 84
2017-09-03 02:00:00 10.9 5 Sur 7 Sur 0 920.2 -0.7 76
2017-09-03 01:00:00 11.9 3 Sur 9 Sudeste 0 920.6 0 75
2017-09-03 00:00:00 12.5 4 Sur 5 Sudeste 0 920.8 0.7 73
2017-09-02 23:00:00 14.1 0 Calma 5 Norte 0 920.9 1.2 66
2017-09-02 22:00:00 16 2 Este 10 Norte 0 920.6 0.7 59
2017-09-02 21:00:00 18.4 3 Norte 12 Norte 0 920.1 0.1 51
2017-09-02 20:00:00 22.3 8 Norte 14 Nordeste 0 919.7 -0.6 36
2017-09-02 19:00:00 24.4 6 Norte 16 Noroeste 0 919.9 -1.1 30
2017-09-02 18:00:00 24.6 7 Norte 18 Norte 0 920 -1.6 26
2017-09-02 17:00:00 24.3 7 Noroeste 21 Norte 0 920.3 -1.8 30
2017-09-02 16:00:00 23.7 8 Noroeste 18 Noroeste 0 921 -1.8 30
2017-09-02 15:00:00 22.6 6 Noroeste 19 Noroeste 0 921.6 -1.6 31
2017-09-02 14:00:00 20.9 7 Norte 21 Noroeste 0 922.1 -1.4 36
2017-09-02 13:00:00 19.4 8 Norte 19 Noroeste 0 922.8 -0.8 41
2017-09-02 12:00:00 17.6 8 Noroeste 23 Norte 0 923.2 0 49
2017-09-02 11:00:00 15.5 6 Norte 17 Noroeste 0 923.5 0.6 55
2017-09-02 10:00:00 13.2 4 Nordeste 9 Norte 0 923.6 0.9 67
2017-09-02 09:00:00 10.1 5 Sur 8 Sur 0 923.2 0.6 83
2017-09-02 08:00:00 6.7 0 Calma 5 Norte 0 922.9 0.2 94
2017-09-02 07:00:00 7.5 3 Sudoeste 8 Sudeste 0 922.7 -0.4 92
2017-09-02 06:00:00 7.9 2 Sudeste 5 Sudoeste 0 922.6 -0.6 91
2017-09-02 05:00:00 9 2 Oeste 8 Noroeste 0 922.7 -0.4 89
2017-09-02 04:00:00 9.6 3 Norte 14 Nordeste 0 923.1 0 86
2017-09-02 03:00:00 10.9 5 Norte 19 Norte 0 923.2 0.5 80
2017-09-02 02:00:00 11.6 8 Nordeste 18 Norte 0 923.1 1 76
2017-09-02 01:00:00 12.2 6 Norte 17 Norte 0 923.1 1.7 75
2017-09-02 00:00:00 12.8 5 Norte 19 Norte 0 922.7 2.5 70
2017-09-01 23:00:00 13.5 6 Norte 30 Norte 0 922.1 2.5 66
2017-09-01 22:00:00 14.6 17 Norte 42 Norte 0 921.4 2.2 61
2017-09-01 21:00:00 16.4 19 Norte 36 Nordeste 0 920.2 1.4 51
2017-09-01 20:00:00 18.5 15 Norte 32 Nordeste 0 919.6 0.8 46
2017-09-01 19:00:00 20 15 Nordeste 32 Nordeste 0 919.2 0 46
2017-09-01 18:00:00 21.7 13 Nordeste 24 Nordeste 0 918.8 -0.8 42
2017-09-01 17:00:00 23.5 5 Noroeste 23 Norte 0 918.8 -1.4 42
2017-09-01 16:00:00 22 10 Norte 23 Norte 0 919.2 -1.6 40
2017-09-01 15:00:00 22.6 9 Noroeste 21 Nordeste 0 919.6 -1.4 40
2017-09-01 14:00:00 20.9 7 Norte 34 Este 0 920.2 -1 43
2017-09-01 13:00:00 19.4 10 Norte 20 Nordeste 0 920.8 -0.3 43
2017-09-01 12:00:00 18.7 8 Norte 21 Norte 0 921 0.1 46
2017-09-01 11:00:00 15.9 6 Norte 13 Norte 0 921.2 0.5 52
2017-09-01 10:00:00 13 3 Noroeste 11 Norte 0 921.1 0.8 73
2017-09-01 09:00:00 12.8 5 Norte 18 Norte 0 920.9 0.8 66
2017-09-01 08:00:00 13.3 6 Norte 17 Norte 0 920.7 0.6 64
2017-09-01 07:00:00 13.6 9 Norte 22 Nordeste 0 920.3 0.2 62
2017-09-01 06:00:00 13.5 10 Norte 20 Norte 0 920.1 -0.1 61
2017-09-01 05:00:00 13.7 9 Norte 18 Nordeste 0 920.1 -0.2 61
2017-09-01 04:00:00 13.1 5 Norte 12 Norte 0 920.1 -0.3 70
2017-09-01 03:00:00 12.7 6 Norte 19 Norte 0 920.2 -0.2 75
2017-09-01 02:00:00 13.3 7 Norte 14 Norte 0 920.3 0 75
2017-09-01 01:00:00 13.8 4 Norte 15 Norte 0 920.4 0.4 72
2017-09-01 00:00:00 14.6 6 Norte 20 Norte 0 920.4 1.1 69
2017-08-31 23:00:00 15.6 6 Norte 19 Norte 0 920.3 1.8 70
2017-08-31 22:00:00 17 7 Norte 17 Norte 0 920 2.2 66
2017-08-31 21:00:00 18.1 8 Nordeste 24 Nordeste 0 919.3 1.8 63
2017-08-31 20:00:00 20.7 12 Norte 26 Norte 0 918.5 0.7 54
2017-08-31 19:00:00 22.3 10 Norte 24 Norte 0 917.8 -0.5 49
2017-08-31 18:00:00 23 10 Nordeste 20 Norte 0 917.5 -1.1 47
2017-08-31 17:00:00 23.7 9 Norte 19 Noroeste 0 917.8 -1 45
2017-08-31 16:00:00 22.4 6 Noroeste 14 Norte 0 918.3 -1.1 51
2017-08-31 15:00:00 23 8 Noroeste 21 Noroeste 0 918.6 -1.2 52
2017-08-31 14:00:00 21.2 10 Noroeste 22 Noroeste 0 918.8 -0.9 56
2017-08-31 13:00:00 20.2 9 Noroeste 20 Noroeste 0 919.4 0.1 59
2017-08-31 12:00:00 18.3 6 Norte 21 Noroeste 0 919.8 0.7 64
2017-08-31 11:00:00 18.2 6 Norte 18 Norte 0 919.7 1.2 65
2017-08-31 10:00:00 15.7 8 Norte 23 Norte 0 919.3 1.3 74
2017-08-31 09:00:00 13.9 7 Norte 24 Norte 0 919.1 1.2 81
2017-08-31 08:00:00 13.4 8 Norte 22 Norte 0 918.5 0.7 86
2017-08-31 07:00:00 14 4 Norte 12 Norte 0 918 0.7 86
2017-08-31 06:00:00 14.3 4 Norte 15 Norte 0 917.9 0.7 86
2017-08-31 05:00:00 14.6 6 Norte 21 Nordeste 0 917.8 0.8 85
2017-08-31 04:00:00 14.9 9 Norte 22 Norte 0 917.3 1 85
2017-08-31 03:00:00 15.3 10 Norte 31 Nordeste 0 917.2 0.8 85
2017-08-31 02:00:00 16.2 10 Norte 24 Norte 0 917 0.7 84
2017-08-31 01:00:00 17 0 Calma 5 Nordeste 0 916.3 0.4 80
2017-08-31 00:00:00 18.3 2 Noroeste 6 Norte 0 916.4 1.6 72
2017-08-30 23:00:00 19.5 2 Noroeste 19 Noroeste 0 916.3 1.9 65
2017-08-30 22:00:00 20.4 2 Este 8 Oeste 0 915.9 1.7 58
2017-08-30 21:00:00 21.7 4 Oeste 8 Oeste 0 914.8 0.3 62
2017-08-30 20:00:00 25.1 2 Sudoeste 10 Este 0 914.4 -0.6 47
2017-08-30 19:00:00 24 8 Este 18 Sudeste 0 914.2 -0.8 48
2017-08-30 18:00:00 24 9 Este 16 Este 0 914.5 -0.7 50
2017-08-30 17:00:00 21.5 5 Norte 19 Noroeste 0.2 915 -0.4 71
2017-08-30 16:00:00 23.8 10 Oeste 25 Oeste 0 915 -0.8 55
2017-08-30 15:00:00 25.3 5 Sudeste 15 Sudeste 0 915.2 -1.2 46
2017-08-30 14:00:00 25.2 7 Sudeste 15 Sudoeste 0 915.4 -0.9 45
2017-08-30 13:00:00 23.3 7 Sur 17 Sudoeste 0 915.8 -0.1 56
2017-08-30 12:00:00 22 8 Sur 19 Sudoeste 0 916.4 -0.2 61
2017-08-30 11:00:00 19.9 7 Sudoeste 14 Sudoeste 0 916.3 -0.1 68
2017-08-30 10:00:00 17.8 8 Sudoeste 13 Sudoeste 0 915.9 0.1 78
2017-08-30 09:00:00 15.9 5 Sudoeste 10 Oeste 0 916.6 1.3 85
2017-08-30 08:00:00 14.6 2 Norte 6 Sur 0 916.4 0.4 91
2017-08-30 07:00:00 14.4 4 Sudeste 10 Sudeste 0 915.8 -0.3 89
2017-08-30 06:00:00 14.9 3 Nordeste 13 Sur 0 915.3 -1.7 87
2017-08-30 05:00:00 15.9 6 Sudeste 18 Sudeste 0 916 -0.2 81
2017-08-30 04:00:00 16.5 5 Sur 17 Sur 0 916.1 -0.1 79
2017-08-30 03:00:00 17.1 9 Sudoeste 19 Sudoeste 0 917 0.3 78
2017-08-30 02:00:00 16.6 7 Sudeste 11 Sur 0 916.2 -0.2 79
2017-08-30 01:00:00 16.4 6 Sudoeste 11 Sudoeste 0 916.2 0.4 76
2017-08-30 00:00:00 16.8 6 Sudeste 16 Sudeste 0 916.7 1.7 73
2017-08-29 23:00:00 16.3 8 Sudeste 20 Sur 0 916.4 0.9 75
2017-08-29 22:00:00 17 12 Sur 38 Sur 0 915.8 0.6 70
2017-08-29 21:00:00 18 14 Sudeste 32 Sur 0 915 0.5 66
2017-08-29 20:00:00 18.6 12 Sur 28 Sur 0 915.5 1 70
2017-08-29 19:00:00 19.4 15 Sur 41 Sur 0 915.2 1.1 66
2017-08-29 18:00:00 21.1 23 Sudoeste 45 Sudoeste 0 914.5 0 63
2017-08-29 17:00:00 22.5 19 Sur 40 Sudeste 0 914.5 -0.6 64
2017-08-29 16:00:00 24.3 29 Sudeste 40 Sudeste 0 914.1 -1.9 58
2017-08-29 15:00:00 25.5 12 Sur 23 Sur 0 914.5 -1.8 53
2017-08-29 14:00:00 25.6 9 Sur 18 Sur 0 915.1 -1.1 56
2017-08-29 13:00:00 22 9 Sudoeste 21 Sudoeste 0 916 -0.3 66
2017-08-29 12:00:00 22.3 11 Sur 27 Sudoeste 0 916.3 0 65
2017-08-29 11:00:00 20 4 Sur 9 Sudoeste 0 916.2 -0.1 76
2017-08-29 10:00:00 17.8 7 Sur 12 Sur 0 916.3 0 84
2017-08-29 09:00:00 15.7 3 Norte 9 Sudoeste 0 916.3 0.5 94
2017-08-29 08:00:00 14 4 Noroeste 23 Sudeste 0.2 916.3 0.6 96
2017-08-29 07:00:00 14 10 Sur 36 Sur 3.2 916.3 0.2 98
2017-08-29 06:00:00 13.6 6 Sudeste 9 Sudeste 0 915.8 -1.3 98
2017-08-29 05:00:00 13.8 4 Sudeste 6 Sudeste 0 915.7 -1.6 98
2017-08-29 04:00:00 13.6 2 Norte 5 Nordeste 0 916.1 -1.1 97
2017-08-29 03:00:00 14.2 3 Oeste 13 Nordeste 0 917.1 -0.1 96
2017-08-29 02:00:00 14.2 3 Norte 5 Norte 0 917.3 -0.5 96
2017-08-29 01:00:00 14.3 3 Norte 4 Norte 0 917.2 -1.4 95
2017-08-29 00:00:00 15.2 5 Nordeste 17 Nordeste 0 917.2 0.2 91
2017-08-28 23:00:00 15.8 6 Nordeste 12 Nordeste 2.2 917.8 1.8 93
2017-08-28 22:00:00 16.4 6 Norte 23 Norte 3.4 918.6 3.3 89
2017-08-28 21:00:00 19 7 Oeste 21 Oeste 0 917 2.2 77
2017-08-28 20:00:00 20.6 3 Oeste 19 Oeste 0 916 0.2 69
2017-08-28 19:00:00 22.1 8 Oeste 23 Sudoeste 0 915.3 -0.9 65
2017-08-28 18:00:00 22.8 6 Norte 15 Noroeste 0 914.8 -0.7 68
2017-08-28 17:00:00 22.3 4 Norte 28 Nordeste 0 915.8 0.6 70
2017-08-28 16:00:00 22.2 15 Norte 31 Norte 0 916.2 -0.2 62
2017-08-28 15:00:00 27.2 9 Sudeste 31 Este 0 915.5 -1.6 47
2017-08-28 14:00:00 30.3 10 Este 26 Este 0 915.2 -1.9 39
2017-08-28 13:00:00 28.8 8 Sudeste 14 Este 0 916.4 -0.4 43
2017-08-28 12:00:00 26.3 4 Oeste 10 Noroeste 0 917.1 0.4 55
2017-08-28 11:00:00 24.2 3 Oeste 8 Norte 0 917.1 -0.1 62
2017-08-28 10:00:00 21.2 7 Nordeste 13 Nordeste 0 916.8 -0.2 72
2017-08-28 09:00:00 17.3 0 Calma 9 Sudeste 0 916.7 -0.3 90
2017-08-28 08:00:00 14.9 4 Sur 8 Sur 0 917.2 -0.3 94
2017-08-28 07:00:00 14.8 5 Sur 9 Sur 0 917 -0.4 93
2017-08-28 06:00:00 15.3 5 Sur 13 Este 0 917 -0.8 90
2017-08-28 05:00:00 15 5 Sudeste 7 Sudeste 0 917.5 -0.4 90
2017-08-28 04:00:00 14.9 3 Sudoeste 8 Sudeste 0 917.4 -0.5 94
2017-08-28 03:00:00 15.4 5 Sudeste 10 Sudeste 0 917.8 -0.2 92
2017-08-28 02:00:00 16 6 Sudeste 10 Sur 0 917.9 0.1 92
2017-08-28 01:00:00 15.9 4 Sudeste 9 Sudeste 0 917.9 -0.1 93
2017-08-28 00:00:00 16.2 6 Sudeste 10 Sudeste 0 918 -0.5 91
2017-08-27 23:00:00 16.8 8 Sudeste 12 Sur 0.2 917.8 -1.1 89
2017-08-27 22:00:00 17.6 12 Sudeste 19 Sudeste 0 918 -1.3 86
2017-08-27 21:00:00 17.8 9 Sur 18 Sudeste 0 918.5 -1.2 89
2017-08-27 20:00:00 17.8 17 Este 22 Este 0 918.9 -0.3 87
2017-08-27 19:00:00 17.6 9 Sudeste 32 Oeste 2.2 919.3 -0.5 89
2017-08-27 18:00:00 19.6 4 Sudoeste 8 Sudoeste 0 919.7 0.2 84
2017-08-27 17:00:00 20 3 Oeste 12 Nordeste 0.2 919.2 1.6 85
2017-08-27 16:00:00 18.8 4 Norte 31 Oeste 3.2 919.8 2.6 85
2017-08-27 15:00:00 20.2 10 Oeste 43 Oeste 0.6 919.5 1.5 73
2017-08-27 14:00:00 25.5 4 Oeste 8 Noroeste 0 917.6 -0.6 60
2017-08-27 13:00:00 26.8 4 Oeste 10 Oeste 0 917.2 -1.1 54
2017-08-27 12:00:00 22 3 Oeste 17 Nordeste 0 918 0 73
2017-08-27 11:00:00 19.9 7 Nordeste 11 Nordeste 0 918.2 0.4 81
2017-08-27 10:00:00 20.1 6 Sur 12 Sudeste 0 918.3 0.7 78
2017-08-27 09:00:00 17.4 6 Sudeste 10 Oeste 0 918 0.4 89
2017-08-27 08:00:00 16.7 9 Sur 15 Oeste 0 917.8 -0.1 90
2017-08-27 07:00:00 16.5 6 Sudeste 11 Sur 0 917.6 -1 89
2017-08-27 06:00:00 16.4 6 Sur 14 Sudeste 0 917.6 -1.4 86
2017-08-27 05:00:00 16.2 7 Sudeste 15 Sudoeste 0 917.9 -1.1 92
2017-08-27 04:00:00 16.9 6 Sur 11 Sudoeste 0 918.6 -0.3 92
2017-08-27 03:00:00 17 12 Este 36 Sur 3.8 919 0.2 91
2017-08-27 02:00:00 17.2 3 Oeste 9 Sudeste 0 919 0.2 90
2017-08-27 01:00:00 17.7 5 Sur 8 Sudoeste 0 918.9 0.3 88
2017-08-27 00:00:00 17.7 5 Noroeste 10 Sudeste 0 918.8 -0.5 85
2017-08-26 23:00:00 19 7 Este 13 Sur 0 918.8 1.6 80
2017-08-26 22:00:00 18.7 10 Este 53 Sudeste 0.6 918.6 2.9 81
2017-08-26 21:00:00 20.6 39 Sudeste 59 Sudeste 1.2 919.3 2.9 75
2017-08-26 20:00:00 25.2 22 Este 37 Este 0 917.2 0.1 50
2017-08-26 19:00:00 26.9 10 Este 32 Este 0 915.7 -0.3 45
2017-08-26 18:00:00 26.7 16 Este 41 Sudeste 0 916.4 0.2 52
2017-08-26 17:00:00 24.2 16 Sudeste 55 Sudoeste 1.6 917.1 0.5 49
2017-08-26 16:00:00 32.9 16 Sur 37 Sur 0 916 -1.1 22
2017-08-26 15:00:00 33.9 12 Sur 32 Sudoeste 0 916.2 -1.1 21
2017-08-26 14:00:00 33.6 11 Sudoeste 24 Sudoeste 0 916.6 -0.8 23
2017-08-26 13:00:00 32.2 13 Sudoeste 23 Sudoeste 0 917.1 -0.4 28
2017-08-26 12:00:00 30.8 13 Sudoeste 27 Sur 0 917.3 -0.2 26
2017-08-26 11:00:00 29.1 12 Sudoeste 30 Sudoeste 0 917.4 0.1 35
2017-08-26 10:00:00 25 2 Norte 8 Sur 0 917.5 0.6 46
2017-08-26 09:00:00 19.5 2 Sudeste 7 Sur 0 917.5 0.7 63
2017-08-26 08:00:00 17.4 3 Sudeste 5 Sudeste 0 917.3 0.4 67
2017-08-26 07:00:00 18.2 2 Nordeste 6 Sur 0 916.9 -0.2 63
2017-08-26 06:00:00 18.4 3 Nordeste 6 Este 0 916.8 -0.4 64
2017-08-26 05:00:00 19 4 Sur 13 Sur 0 916.9 -0.8 64
2017-08-26 04:00:00 18.8 4 Sudeste 9 Sudoeste 0 917.1 -1.1 60
2017-08-26 03:00:00 18.8 4 Sudeste 7 Sudeste 0 917.2 -1 65
2017-08-26 02:00:00 19.2 5 Este 8 Este 0 917.7 -0.5 64
2017-08-26 01:00:00 20.2 5 Sudeste 15 Sudoeste 0 918.2 0 63
2017-08-26 00:00:00 21 8 Sur 24 Sudoeste 0 918.2 0.4 62
2017-08-25 23:00:00 21.7 10 Sudoeste 26 Sur 0 918.2 2.4 58
2017-08-25 22:00:00 24.3 14 Sur 49 Sur 0 918.2 2.2 42
2017-08-25 21:00:00 25.6 27 Sur 62 Sur 0 917.8 2.1 40
2017-08-25 20:00:00 29.9 17 Oeste 47 Oeste 0 915.8 0.5 22
2017-08-25 19:00:00 31 19 Oeste 40 Sudoeste 0 916 0.5 21
2017-08-25 18:00:00 31.3 21 Oeste 54 Oeste 0 915.7 -0.2 19
2017-08-25 17:00:00 33.9 21 Oeste 46 Sudoeste 0 915.3 -1.7 19
2017-08-25 16:00:00 34.4 18 Sudoeste 37 Sur 0 915.5 -1.5 19
2017-08-25 15:00:00 34.6 19 Sur 43 Sudeste 0 915.9 -1.7 16
2017-08-25 14:00:00 32.3 20 Sur 42 Sur 0 917 -1 22
2017-08-25 13:00:00 33.2 6 Oeste 16 Oeste 0 917 -1.1 25
2017-08-25 12:00:00 30 3 Sudoeste 9 Sudeste 0 917.6 -0.4 31
2017-08-25 11:00:00 24.9 2 Norte 9 Sur 0 918 0.2 46
2017-08-25 10:00:00 22.2 5 Sur 13 Sudoeste 0 918.1 0.4 54
2017-08-25 09:00:00 20.5 6 Sur 12 Sudeste 0 918 0.2 58
2017-08-25 08:00:00 17.7 8 Sudeste 11 Sudeste 0 917.8 0 69
2017-08-25 07:00:00 17.5 3 Sur 6 Sur 0 917.7 -0.2 72
2017-08-25 06:00:00 18.2 3 Sudeste 6 Sudeste 0 917.8 -0.1 70
2017-08-25 05:00:00 19.8 6 Sudeste 8 Sur 0 917.8 -0.2 66
2017-08-25 04:00:00 21.3 2 Este 16 Sur 0 917.9 -0.1 61
2017-08-25 03:00:00 22.3 5 Sudeste 11 Sur 0 917.9 0.4 55
2017-08-25 02:00:00 23.7 5 Sudoeste 15 Sudoeste 0 918 1.1 53
2017-08-25 01:00:00 24.8 9 Sudoeste 27 Sudoeste 0 918 1.6 50
2017-08-25 00:00:00 26.4 14 Sudoeste 25 Sudoeste 0 917.5 2 45
2017-08-24 23:00:00 26.8 14 Sudoeste 26 Sudoeste 0 916.9 1.8 43
2017-08-24 22:00:00 27.5 10 Sudeste 25 Sudeste 0 916.4 1.4 32
2017-08-24 21:00:00 30.2 9 Oeste 23 Oeste 0 915.5 0.3 21
2017-08-24 20:00:00 32.6 13 Oeste 31 Sudoeste 0 915.1 -0.2 19
2017-08-24 19:00:00 34.5 10 Sudoeste 35 Oeste 0 915 -1 17
2017-08-24 18:00:00 34.9 16 Sudoeste 36 Oeste 0 915.2 -1.3 18
2017-08-24 17:00:00 35.7 21 Sur 35 Sur 0 915.3 -1.6 18
2017-08-24 16:00:00 33.7 13 Sudoeste 27 Sudoeste 0 916 -1.5 22
2017-08-24 15:00:00 33.3 8 Oeste 17 Oeste 0 916.5 -1.6 27
2017-08-24 14:00:00 32.7 7 Sudoeste 17 Sudoeste 0 916.9 -1.3 24
2017-08-24 13:00:00 31.1 5 Sur 23 Oeste 0 917.5 -0.8 26
2017-08-24 12:00:00 28.5 14 Sudoeste 23 Oeste 0 918.1 -0.1 29
2017-08-24 11:00:00 27.1 6 Sudeste 11 Sudeste 0 918.2 0.1 36
2017-08-24 10:00:00 23 4 Sudoeste 10 Sudoeste 0 918.3 0.4 55
2017-08-24 09:00:00 20.4 5 Sur 10 Sur 0 918.2 0.3 73
2017-08-24 08:00:00 17.4 5 Sudeste 10 Sudeste 0 918.1 0.3 86
2017-08-24 07:00:00 18.1 6 Sudeste 18 Sudeste 0 917.9 -0.2 85
2017-08-24 06:00:00 19.2 10 Sudoeste 34 Este 0 917.9 -0.7 84
2017-08-24 05:00:00 19.4 27 Este 44 Este 0 917.8 -0.9 84
2017-08-24 04:00:00 19.8 27 Este 38 Este 0 918.1 -0.1 80
2017-08-24 03:00:00 21 4 Oeste 41 Nordeste 0 918.6 0.8 75
2017-08-24 02:00:00 21.1 23 Nordeste 37 Nordeste 0 918.7 1.3 79
2017-08-24 01:00:00 21.9 5 Sudeste 18 Sur 0 918.2 0.9 64
2017-08-24 00:00:00 21.9 10 Sudeste 17 Sudeste 0 917.8 1.1 67
2017-08-23 23:00:00 22.4 6 Sur 10 Sudeste 0 917.4 0.9 71
2017-08-23 22:00:00 23.1 6 Sudeste 18 Sudeste 0 917.3 0.7 65
2017-08-23 21:00:00 24 8 Sur 28 Este 0 916.7 -0.1 52
2017-08-23 20:00:00 25.4 20 Este 30 Este 0 916.5 -0.5 47
2017-08-23 19:00:00 26.5 13 Este 30 Sudeste 0 916.6 -0.8 48
2017-08-23 18:00:00 24.7 6 Sudoeste 35 Sudeste 0.8 916.8 -0.3 66
2017-08-23 17:00:00 28.7 19 Este 45 Sudeste 0 917 -0.9 33
2017-08-23 16:00:00 32.2 28 Sudeste 45 Sudeste 0 917.4 -0.6 27
2017-08-23 15:00:00 31.4 18 Este 27 Sudeste 0 917.1 -1 34
2017-08-23 14:00:00 27.1 5 Este 11 Sudeste 0.6 917.9 -0.5 64
2017-08-23 13:00:00 29.3 6 Noroeste 17 Noroeste 0 918 -0.3 42
2017-08-23 12:00:00 28.3 7 Noroeste 17 Noroeste 0 918.1 -0.4 42
2017-08-23 11:00:00 26.4 5 Noroeste 10 Noroeste 0 918.4 0.1 45
2017-08-23 10:00:00 23.6 2 Noroeste 6 Noroeste 0 918.3 0.3 52
2017-08-23 09:00:00 20.1 3 Norte 6 Noroeste 0 918.5 0.7 64
2017-08-23 08:00:00 17.3 2 Norte 5 Norte 0 918.3 0.4 74
2017-08-23 07:00:00 17.9 0 Calma 6 Norte 0 918 0.3 70
2017-08-23 06:00:00 19.2 3 Norte 13 Norte 0 917.8 0.1 67
2017-08-23 05:00:00 19.7 5 Norte 10 Norte 0 917.9 0.3 70
2017-08-23 04:00:00 21 3 Norte 11 Nordeste 0 917.7 0.3 65
2017-08-23 03:00:00 21.7 4 Norte 12 Norte 0 917.7 0.6 63
2017-08-23 02:00:00 23.3 5 Noroeste 11 Este 0 917.6 0.6 57
2017-08-23 01:00:00 23.9 2 Sur 10 Sudoeste 0 917.4 0.8 53
2017-08-23 00:00:00 24.4 6 Sudoeste 11 Sur 0 917.1 1.7 50
2017-08-22 23:00:00 25.5 4 Oeste 10 Noroeste 0 917 2.1 50
2017-08-22 22:00:00 29 9 Norte 31 Este 0 916.6 1.1 39
2017-08-22 21:00:00 30.6 17 Este 33 Este 0 915.4 0 31
2017-08-22 20:00:00 32.3 22 Este 34 Este 0 914.9 -1.1 30
2017-08-22 19:00:00 34.4 13 Sudeste 25 Sur 0 915.5 -1.2 28
2017-08-22 18:00:00 37 12 Sudoeste 23 Sudoeste 0 915.4 -2.1 22
2017-08-22 17:00:00 36.2 5 Sur 14 Sur 0 916 -2 23
2017-08-22 16:00:00 36.6 3 Sudoeste 16 Noroeste 0 916.7 -2 22
2017-08-22 15:00:00 35.7 5 Sudoeste 15 Sudoeste 0 917.5 -1.8 24
2017-08-22 14:00:00 35.2 5 Este 11 Sur 0 918 -1.6 25
2017-08-22 13:00:00 32.2 4 Noroeste 14 Oeste 0 918.7 -1 34
2017-08-22 12:00:00 30.1 7 Sur 14 Oeste 0 919.3 -0.7 43
2017-08-22 11:00:00 26.2 7 Sudoeste 14 Sudoeste 0 919.6 -0.4 54
2017-08-22 10:00:00 24 5 Sur 10 Sudoeste 0 919.7 -0.2 58
2017-08-22 09:00:00 21 6 Sudoeste 13 Sudeste 0 920 0.7 68
2017-08-22 08:00:00 18.8 9 Sudeste 13 Sudeste 0 920 0.8 80
2017-08-22 07:00:00 18.7 4 Sudoeste 11 Sur 0 919.9 0.8 78
2017-08-22 06:00:00 20 7 Sur 12 Este 0 919.3 0.3 71
2017-08-22 05:00:00 20.1 4 Sudeste 17 Este 0 919.2 0.3 70
2017-08-22 04:00:00 20.7 9 Este 17 Este 0 919.1 0 67
2017-08-22 03:00:00 20.7 0 Calma 10 Este 0 919 -0.2 69
2017-08-22 02:00:00 22.3 10 Este 13 Este 0 918.9 -0.1 64
2017-08-22 01:00:00 23 4 Sudeste 8 Sur 0 919.1 0.6 57
2017-08-22 00:00:00 24.3 5 Sur 17 Sudeste 0 919.2 1.6 48